Pagrindinis puslapis
METAR-TAF:

METAR-TAF

Oro uostai :

Akhiok, Aliaska, Jungtinės Amerikos Valstijos

platuma: 56-56-19N, ilguma: 154-10-57W, Aukštis: 13 m

Dabartinis oras

Ataskaita buvo paskelbta 38 minutes, ne 20:56 UTC
Vėjas 18 kt iš Šiaurės Vakarų su gūsio iki 29 kt
Temperatūra 11°C
Drėgmė 58%
Slėgis 1005 hPa
Išsisklaidę debesys ne aukštis 3500 ft

METAR: PAKH 212056Z AUTO 32018G29KT SCT035 11/03 A2969 RMK AO2 PK WND 31034/2020 SLP057 T01060028 53013 PWINO $

Laikas: 13:34 (21:34 UTC)


TAF: trūkstamas

Orai ataskaitas ir orų prognozės (METAR, TAF).

turimą stotys yra geltonos ir raudonos taškus žemėlapyje.

Perkelti pele per norėdami pamatyti stoties vardą.

Tada spustelėkite, norėdami matyti oro stebėjimo ir prognozės.

Norėdami pakeisti žemėlapį: spustelėkite ant žalios mygtukų su juodo kryžiaus žemyn,; žalią mygtuką su brūkšneliu, jei norite nutolinti; arba žalių rodyklių gretimoms žemėlapius.


METAR-TAF: